Time;durP1;ratioP1;P1;durP2;ratioP2;P2;SDS_P1;SDS_P2;PMS_P1;PMS_P2;Temp;Humidity;BMP_temperature;BMP_pressure;BME280_temperature;BME280_humidity;BME280_pressure;Samples;Min_cycle;Max_cycle;Signal;HPM_P1;HPM_P2
2022/07/14 00:00:18;;;;;;;6.97;1.85;;;14.50;99.90;;;;;;5060369;28;20052;-70
2022/07/14 00:02:43;;;;;;;12.88;2.90;;;14.50;99.90;;;;;;5077364;28;20105;-72
2022/07/14 00:05:09;;;;;;;9.80;2.03;;;14.50;99.90;;;;;;5077815;28;20123;-71
2022/07/14 00:07:35;;;;;;;10.02;2.38;;;14.50;99.90;;;;;;5060189;28;20053;-71
2022/07/14 00:10:00;;;;;;;7.45;2.22;;;14.40;99.90;;;;;;5059914;28;20037;-71
2022/07/14 00:12:26;;;;;;;6.43;2.10;;;14.40;99.90;;;;;;5060308;28;20044;-70
2022/07/14 00:14:52;;;;;;;7.53;1.95;;;14.40;99.90;;;;;;5060145;28;20411;-71
2022/07/14 00:17:17;;;;;;;7.32;2.40;;;14.40;99.90;;;;;;5061336;28;20560;-70
2022/07/14 00:19:43;;;;;;;7.68;2.00;;;14.30;99.90;;;;;;5080009;28;20044;-70
2022/07/14 00:22:08;;;;;;;8.45;2.28;;;14.20;99.90;;;;;;5079471;28;20364;-70
2022/07/14 00:24:34;;;;;;;9.32;2.65;;;14.20;99.90;;;;;;5080276;28;20047;-70
2022/07/14 00:26:59;;;;;;;11.50;2.55;;;14.10;99.90;;;;;;5097813;28;20035;-70
2022/07/14 00:29:25;;;;;;;7.75;2.45;;;14.10;99.90;;;;;;5079683;28;20055;-71
2022/07/14 00:31:51;;;;;;;9.65;2.70;;;14.00;99.90;;;;;;5079274;28;20084;-69
2022/07/14 00:34:16;;;;;;;15.80;3.45;;;14.00;99.90;;;;;;5097744;28;20051;-71
2022/07/14 00:36:42;;;;;;;12.55;2.80;;;14.00;99.90;;;;;;5097179;28;20043;-71
2022/07/14 00:39:07;;;;;;;7.90;2.55;;;14.10;99.90;;;;;;5097584;28;20119;-71
2022/07/14 00:41:34;;;;;;;9.25;3.08;;;13.90;99.90;;;;;;5097627;28;20048;-70
2022/07/14 00:44:01;;;;;;;8.07;2.03;;;13.90;99.90;;;;;;5097304;28;20128;-70
2022/07/14 00:46:26;;;;;;;7.43;2.72;;;13.90;99.90;;;;;;5075111;28;20063;-72
2022/07/14 00:48:52;;;;;;;10.13;2.33;;;13.90;99.90;;;;;;5076466;28;20037;-70
2022/07/14 00:51:17;;;;;;;7.68;2.08;;;14.00;99.90;;;;;;5059199;28;20137;-71
2022/07/14 00:53:43;;;;;;;10.52;2.70;;;13.90;99.90;;;;;;5059450;28;20064;-71
2022/07/14 00:56:09;;;;;;;10.00;2.58;;;13.90;99.90;;;;;;5076842;28;20059;-71
2022/07/14 00:58:34;;;;;;;4.15;1.98;;;13.90;99.90;;;;;;5058731;28;20062;-70
2022/07/14 01:01:00;;;;;;;8.65;2.30;;;13.80;99.90;;;;;;5076435;28;20037;-70
2022/07/14 01:03:26;;;;;;;6.43;2.15;;;13.80;99.90;;;;;;5058960;28;20062;-71
2022/07/14 01:05:51;;;;;;;5.97;2.40;;;13.80;99.90;;;;;;5076951;28;20415;-71
2022/07/14 01:08:17;;;;;;;11.85;2.58;;;13.70;99.90;;;;;;5058826;28;20386;-71
2022/07/14 01:10:42;;;;;;;4.97;1.73;;;13.70;99.90;;;;;;5076164;28;20072;-70
2022/07/14 01:13:08;;;;;;;6.15;1.90;;;13.60;99.90;;;;;;5059290;28;20052;-71
2022/07/14 01:15:34;;;;;;;8.90;2.35;;;13.70;99.90;;;;;;5059025;28;20118;-70
2022/07/14 01:18:00;;;;;;;8.35;2.03;;;13.60;99.90;;;;;;5058745;28;20441;-72
2022/07/14 01:20:25;;;;;;;13.52;2.55;;;13.60;99.90;;;;;;5076190;28;20036;-73
2022/07/14 01:22:51;;;;;;;11.05;2.65;;;13.60;99.90;;;;;;5058662;28;20075;-72
2022/07/14 01:25:20;;;;;;;5.97;2.13;;;13.50;99.90;;;;;;5076014;28;20067;-71
2022/07/14 01:27:46;;;;;;;8.65;2.47;;;13.50;99.90;;;;;;5058966;28;20127;-70
2022/07/14 01:30:12;;;;;;;8.98;3.10;;;13.50;99.90;;;;;;5058681;28;20049;-72
2022/07/14 01:32:38;;;;;;;11.95;2.42;;;13.50;99.90;;;;;;5058675;28;20051;-72
2022/07/14 01:35:05;;;;;;;8.20;2.35;;;13.40;99.90;;;;;;5059165;28;20440;-71
2022/07/14 01:37:31;;;;;;;11.82;2.97;;;13.40;99.90;;;;;;5075830;28;20441;-70
2022/07/14 01:39:57;;;;;;;8.57;2.13;;;13.50;99.90;;;;;;5057876;28;20040;-72
2022/07/14 01:42:22;;;;;;;7.05;2.35;;;13.40;99.90;;;;;;5063850;28;20346;-71
2022/07/14 01:44:48;;;;;;;7.00;1.85;;;13.30;99.90;;;;;;5058403;28;20040;-72
2022/07/14 01:47:13;;;;;;;4.57;1.65;;;13.30;99.90;;;;;;5076031;28;20056;-72
2022/07/14 01:49:39;;;;;;;9.70;2.05;;;13.20;99.90;;;;;;5075889;28;20480;-70
2022/07/14 01:52:05;;;;;;;11.85;2.30;;;13.10;99.90;;;;;;5058355;28;20196;-69
2022/07/14 01:54:32;;;;;;;8.57;2.10;;;13.10;99.90;;;;;;5076172;28;20357;-71
2022/07/14 01:56:57;;;;;;;8.52;2.58;;;13.10;99.90;;;;;;5064358;28;20048;-70
2022/07/14 01:59:23;;;;;;;6.85;2.40;;;13.00;99.90;;;;;;5095093;28;20109;-69
2022/07/14 02:01:49;;;;;;;5.28;2.08;;;12.90;99.90;;;;;;5094546;28;20097;-70
2022/07/14 02:04:17;;;;;;;9.50;1.88;;;12.90;99.90;;;;;;5058330;28;20071;-69
2022/07/14 02:06:45;;;;;;;3.92;1.70;;;12.90;99.90;;;;;;5057800;28;20055;-69
2022/07/14 02:09:11;;;;;;;7.90;2.50;;;12.80;99.90;;;;;;5057926;28;20048;-71
2022/07/14 02:14:21;;;;;;;5.72;1.95;;;12.80;99.90;;;;;;5075230;28;20044;-70
2022/07/14 02:16:47;;;;;;;4.78;1.60;;;12.70;99.90;;;;;;5058418;28;20476;-69
2022/07/14 02:19:13;;;;;;;6.03;1.67;;;12.70;99.90;;;;;;5058181;28;20214;-70
2022/07/14 02:21:40;;;;;;;6.75;2.28;;;12.60;99.90;;;;;;5063092;28;20040;-70
2022/07/14 02:24:07;;;;;;;5.75;1.85;;;12.60;99.90;;;;;;5095169;28;20052;-70
2022/07/14 02:26:33;;;;;;;4.78;1.85;;;12.50;99.90;;;;;;5077680;28;20063;-69
2022/07/14 02:28:59;;;;;;;9.43;1.70;;;12.50;99.90;;;;;;5077394;28;20372;-69
2022/07/14 02:31:24;;;;;;;8.60;2.50;;;12.50;99.90;;;;;;5077379;28;20047;-69
2022/07/14 02:33:50;;;;;;;4.68;1.98;;;12.40;99.90;;;;;;5095598;28;20036;-71
2022/07/14 02:36:16;;;;;;;3.70;1.88;;;12.40;99.90;;;;;;5077517;28;20047;-70
2022/07/14 02:38:42;;;;;;;5.03;2.08;;;12.40;99.90;;;;;;5095159;28;20044;-70
2022/07/14 02:41:07;;;;;;;5.93;1.90;;;12.30;99.90;;;;;;5065551;28;20091;-73
2022/07/14 02:43:34;;;;;;;4.03;1.90;;;12.30;99.90;;;;;;5056797;28;20052;-69
2022/07/14 02:46:01;;;;;;;5.43;1.75;;;12.30;99.90;;;;;;5057432;28;20044;-70
2022/07/14 02:48:27;;;;;;;4.50;2.03;;;12.20;99.90;;;;;;5074766;28;20055;-69
2022/07/14 02:51:05;;;;;;;5.97;2.13;;;12.20;99.90;;;;;;5057079;28;20131;-70
2022/07/14 02:53:32;;;;;;;4.88;1.83;;;12.20;99.90;;;;;;5056802;28;20056;-70
2022/07/14 02:55:58;;;;;;;5.00;1.98;;;12.10;99.90;;;;;;5074498;28;20044;-70
2022/07/14 02:58:24;;;;;;;3.33;1.58;;;12.20;99.90;;;;;;5074381;28;20164;-71
2022/07/14 03:00:50;;;;;;;6.25;2.25;;;12.10;99.90;;;;;;5057063;28;20048;-71
2022/07/14 03:03:16;;;;;;;6.55;2.28;;;12.10;99.90;;;;;;5057082;28;20045;-71
2022/07/14 03:05:42;;;;;;;8.50;2.67;;;12.10;99.90;;;;;;5057461;28;20330;-70
2022/07/14 03:08:08;;;;;;;5.07;2.15;;;12.10;99.90;;;;;;5057387;28;20068;-69
2022/07/14 03:10:34;;;;;;;8.30;2.42;;;12.00;99.90;;;;;;5066975;28;20060;-70
2022/07/14 03:13:00;;;;;;;6.53;2.03;;;12.00;99.90;;;;;;5098630;28;20448;-71
2022/07/14 03:15:26;;;;;;;5.47;2.10;;;12.00;99.90;;;;;;5081560;28;20437;-69
2022/07/14 03:17:51;;;;;;;5.57;2.38;;;12.00;99.90;;;;;;5081743;28;20036;-70
2022/07/14 03:20:17;;;;;;;7.93;2.70;;;11.90;99.90;;;;;;5081549;28;20081;-71
2022/07/14 03:22:43;;;;;;;6.85;2.20;;;11.90;99.90;;;;;;5081402;28;20047;-70
2022/07/14 03:25:09;;;;;;;6.05;2.08;;;11.80;99.90;;;;;;5080949;28;20104;-70
2022/07/14 03:27:38;;;;;;;7.30;1.83;;;11.80;99.90;;;;;;5098276;28;20044;-70
2022/07/14 03:30:07;;;;;;;5.50;2.00;;;11.80;99.90;;;;;;5081611;28;20112;-70
2022/07/14 03:32:33;;;;;;;8.82;2.72;;;11.80;99.90;;;;;;5098679;28;20055;-70
2022/07/14 03:35:00;;;;;;;7.68;2.22;;;11.70;99.90;;;;;;5081173;28;20506;-70
2022/07/14 03:37:25;;;;;;;7.22;2.65;;;11.70;99.90;;;;;;5081142;28;20066;-71
2022/07/14 03:39:51;;;;;;;7.20;2.15;;;11.70;99.90;;;;;;5094162;28;20040;-69
2022/07/14 03:42:16;;;;;;;6.80;2.70;;;11.70;99.90;;;;;;5060634;28;20126;-69
2022/07/14 03:44:44;;;;;;;7.43;2.85;;;11.70;99.90;;;;;;5060349;28;20132;-70
2022/07/14 03:47:10;;;;;;;4.70;2.00;;;11.70;99.90;;;;;;5060790;28;20053;-70
2022/07/14 03:49:36;;;;;;;5.80;2.08;;;11.70;99.90;;;;;;5060608;28;20059;-72
2022/07/14 03:52:02;;;;;;;9.52;2.40;;;11.70;99.90;;;;;;5060463;28;20045;-71
2022/07/14 03:54:27;;;;;;;4.35;2.15;;;11.70;99.90;;;;;;5062461;28;20044;-70
2022/07/14 03:56:53;;;;;;;6.50;2.60;;;11.70;99.90;;;;;;5097786;28;20060;-70
2022/07/14 03:59:20;;;;;;;5.60;2.15;;;11.70;99.90;;;;;;5080651;28;20136;-71
2022/07/14 04:01:45;;;;;;;5.03;1.90;;;11.70;99.90;;;;;;5098719;28;20095;-70
2022/07/14 04:04:11;;;;;;;6.43;2.55;;;11.80;99.90;;;;;;5080203;28;20040;-69
2022/07/14 04:06:36;;;;;;;5.45;2.35;;;11.80;99.90;;;;;;5072151;28;20459;-70
2022/07/14 04:09:03;;;;;;;7.70;2.38;;;11.80;99.90;;;;;;5077047;28;20424;-70
2022/07/14 04:11:28;;;;;;;5.28;2.33;;;11.80;99.90;;;;;;5077909;28;20040;-71
2022/07/14 04:13:54;;;;;;;7.82;2.80;;;11.80;99.90;;;;;;5078026;28;20425;-70
2022/07/14 04:16:19;;;;;;;8.35;3.08;;;11.80;99.90;;;;;;5077555;28;20094;-70
2022/07/14 04:18:45;;;;;;;5.53;2.92;;;11.90;99.90;;;;;;5077618;28;20041;-71
2022/07/14 04:21:11;;;;;;;5.40;2.33;;;11.90;99.90;;;;;;5059802;28;20114;-69
2022/07/14 04:23:37;;;;;;;8.77;3.17;;;12.00;99.90;;;;;;5076607;28;20044;-69
2022/07/14 04:26:03;;;;;;;9.90;2.72;;;11.90;99.90;;;;;;5077017;28;20380;-70
2022/07/14 04:28:29;;;;;;;10.15;2.85;;;12.00;99.90;;;;;;5059792;28;20488;-71
2022/07/14 04:30:55;;;;;;;5.90;2.47;;;12.00;99.90;;;;;;5060047;28;20048;-71
2022/07/14 04:33:21;;;;;;;5.97;2.67;;;12.00;99.90;;;;;;5060115;28;20147;-71
2022/07/14 04:35:48;;;;;;;17.83;2.92;;;12.20;99.90;;;;;;5077446;28;20044;-71
2022/07/14 04:38:14;;;;;;;4.45;2.22;;;12.20;99.90;;;;;;5059475;28;20056;-71
2022/07/14 04:40:50;;;;;;;6.68;2.83;;;12.20;99.90;;;;;;5060590;28;20056;-69
2022/07/14 04:43:17;;;;;;;5.53;2.53;;;12.20;99.90;;;;;;5045987;28;20094;-69
2022/07/14 04:45:43;;;;;;;7.30;2.60;;;12.30;99.90;;;;;;5077085;28;20067;-69
2022/07/14 04:48:09;;;;;;;5.10;2.58;;;12.30;99.90;;;;;;5059228;28;20105;-70
2022/07/14 04:53:18;;;;;;;6.45;2.88;;;12.50;99.90;;;;;;5059153;28;20084;-69
2022/07/14 04:55:44;;;;;;;9.05;2.80;;;12.60;99.90;;;;;;5059560;28;20472;-70
2022/07/14 04:58:10;;;;;;;12.32;2.42;;;12.60;99.90;;;;;;5059513;28;20384;-72
2022/07/14 05:00:35;;;;;;;6.60;2.47;;;12.70;99.90;;;;;;5075996;28;20139;-70
2022/07/14 05:03:01;;;;;;;6.45;2.88;;;12.70;99.90;;;;;;5058897;28;20044;-70
2022/07/14 05:05:26;;;;;;;5.32;2.60;;;12.80;99.90;;;;;;5059043;28;20494;-70
2022/07/14 05:07:52;;;;;;;5.72;2.60;;;13.00;99.90;;;;;;5058586;28;20059;-70
2022/07/14 05:10:18;;;;;;;7.07;2.75;;;13.00;99.90;;;;;;5059054;28;20460;-70
2022/07/14 05:12:43;;;;;;;7.15;2.65;;;13.10;99.90;;;;;;5059099;28;20388;-68
2022/07/14 05:15:09;;;;;;;4.53;1.98;;;13.20;99.90;;;;;;5058799;28;20037;-70
2022/07/14 05:17:35;;;;;;;9.27;2.75;;;13.30;99.90;;;;;;5059312;28;20452;-72
2022/07/14 05:20:01;;;;;;;8.13;2.67;;;13.40;99.90;;;;;;5058724;28;20388;-70
2022/07/14 05:22:27;;;;;;;7.78;2.70;;;14.00;99.90;;;;;;5059422;28;20133;-70
2022/07/14 05:24:53;;;;;;;8.55;2.47;;;15.40;99.90;;;;;;5059050;28;20063;-70
2022/07/14 05:27:18;;;;;;;6.70;2.08;;;16.90;99.90;;;;;;5058508;28;20052;-70
2022/07/14 05:29:44;;;;;;;4.28;1.90;;;18.30;99.90;;;;;;5058582;28;20084;-73
2022/07/14 05:32:10;;;;;;;6.50;1.60;;;19.60;99.90;;;;;;5094812;28;20464;-71
2022/07/14 05:34:43;;;;;;;6.63;1.95;;;20.60;99.90;;;;;;5077433;28;20040;-71
2022/07/14 05:37:09;;;;;;;5.20;1.92;;;21.60;99.90;;;;;;5096343;28;20048;-71
2022/07/14 05:39:34;;;;;;;4.95;1.33;;;22.30;99.90;;;;;;5096246;28;20046;-71
2022/07/14 05:42:00;;;;;;;3.45;1.30;;;23.00;99.90;;;;;;5078426;28;20413;-70
2022/07/14 05:44:25;;;;;;;4.13;1.52;;;23.60;99.90;;;;;;5078810;28;20058;-71
2022/07/14 05:46:51;;;;;;;3.13;1.40;;;24.30;99.90;;;;;;5096108;28;20101;-71
2022/07/14 05:49:17;;;;;;;5.18;1.50;;;24.80;99.00;;;;;;5078333;28;20051;-72
2022/07/14 05:51:42;;;;;;;3.47;0.98;;;25.10;98.20;;;;;;5078334;28;20036;-70
2022/07/14 05:54:08;;;;;;;5.85;1.15;;;25.50;98.00;;;;;;5077895;28;20059;-71
2022/07/14 05:56:33;;;;;;;3.92;1.20;;;25.80;97.60;;;;;;5078522;28;20058;-71
2022/07/14 05:58:59;;;;;;;3.45;1.05;;;26.20;97.40;;;;;;5095925;28;20177;-70
2022/07/14 06:01:25;;;;;;;5.32;1.17;;;26.70;96.90;;;;;;5073641;28;20048;-73
2022/07/14 06:03:57;;;;;;;4.45;1.25;;;27.50;96.20;;;;;;5058338;28;20142;-72
2022/07/14 06:06:23;;;;;;;6.32;1.05;;;27.70;94.90;;;;;;5075445;28;20052;-71
2022/07/14 06:08:49;;;;;;;7.18;1.70;;;28.00;93.90;;;;;;5057806;28;20076;-72
2022/07/14 06:11:15;;;;;;;5.32;1.15;;;28.20;94.00;;;;;;5057614;28;20137;-73
2022/07/14 06:13:42;;;;;;;2.97;1.00;;;28.10;94.10;;;;;;5058293;28;20053;-72
2022/07/14 06:16:08;;;;;;;5.88;1.10;;;28.00;93.60;;;;;;5069805;28;20045;-73
2022/07/14 06:18:34;;;;;;;5.35;0.90;;;28.00;93.50;;;;;;5058363;28;20418;-71
2022/07/14 06:20:59;;;;;;;2.80;0.73;;;28.20;94.00;;;;;;5057291;28;20131;-71
2022/07/14 06:23:25;;;;;;;3.08;0.70;;;28.60;93.60;;;;;;5057670;28;20053;-72
2022/07/14 06:25:51;;;;;;;2.00;0.70;;;28.60;92.40;;;;;;5057859;28;20052;-71
2022/07/14 06:28:17;;;;;;;3.28;1.00;;;29.00;92.60;;;;;;5075404;28;20532;-71
2022/07/14 06:30:44;;;;;;;5.03;1.05;;;29.30;92.00;;;;;;5085523;28;20064;-71
2022/07/14 06:33:10;;;;;;;3.70;0.80;;;29.20;92.30;;;;;;5077714;28;20101;-71
2022/07/14 06:35:40;;;;;;;2.95;0.90;;;29.50;92.20;;;;;;5095432;28;20044;-72
2022/07/14 06:38:06;;;;;;;3.63;0.90;;;29.60;91.50;;;;;;5077866;28;20361;-73
2022/07/14 06:40:31;;;;;;;1.65;0.50;;;29.70;91.40;;;;;;5094916;28;20044;-72
2022/07/14 06:42:57;;;;;;;3.45;0.80;;;29.80;91.70;;;;;;5077204;28;20035;-72
2022/07/14 06:45:23;;;;;;;4.10;1.15;;;30.30;91.30;;;;;;5094391;28;20052;-73
2022/07/14 06:47:49;;;;;;;3.60;0.60;;;30.20;90.50;;;;;;5077286;28;20048;-72
2022/07/14 06:50:14;;;;;;;3.03;1.08;;;30.40;90.50;;;;;;5060669;28;20048;-73
2022/07/14 06:52:40;;;;;;;3.60;0.70;;;30.40;90.60;;;;;;5060960;28;20458;-71
2022/07/14 06:55:06;;;;;;;3.20;0.73;;;30.30;90.10;;;;;;5077720;28;20387;-71
2022/07/14 06:57:31;;;;;;;3.83;0.98;;;30.60;90.20;;;;;;5095218;28;20071;-73
2022/07/14 06:59:57;;;;;;;5.18;0.70;;;30.60;90.50;;;;;;5073239;28;20036;-70
2022/07/14 07:02:23;;;;;;;5.07;0.90;;;30.90;89.40;;;;;;5057902;28;20102;-69
2022/07/14 07:06:43;;;;;;;1.98;0.77;;;31.10;90.10;;;;;;5075005;28;20119;-69
2022/07/14 07:07:36;;;;;;;5.93;0.80;;;31.10;88.70;;;;;;5056570;28;20063;-71
2022/07/14 07:10:03;;;;;;;4.25;0.77;;;31.00;89.30;;;;;;5056506;28;20106;-71
2022/07/14 07:12:28;;;;;;;4.63;0.80;;;31.50;88.40;;;;;;5056947;28;20098;-70
2022/07/14 07:14:54;;;;;;;2.53;0.63;;;31.40;86.80;;;;;;5057320;28;20107;-70
2022/07/14 07:17:20;;;;;;;3.95;1.15;;;30.40;87.40;;;;;;5074964;28;20041;-70
2022/07/14 07:19:46;;;;;;;2.75;0.57;;;29.70;87.70;;;;;;5056922;28;20062;-71
2022/07/14 07:22:11;;;;;;;5.10;0.77;;;28.40;88.30;;;;;;5056797;28;20045;-70
2022/07/14 07:24:37;;;;;;;2.38;0.70;;;28.40;89.60;;;;;;5056800;28;20048;-71
2022/07/14 07:27:03;;;;;;;5.45;0.80;;;28.70;89.60;;;;;;5056897;28;20048;-71
2022/07/14 07:29:29;;;;;;;4.25;0.82;;;28.20;88.90;;;;;;5056679;28;20434;-69
2022/07/14 07:31:55;;;;;;;3.25;0.70;;;27.50;90.40;;;;;;5061589;28;20476;-70
2022/07/14 07:34:20;;;;;;;1.13;0.50;;;27.70;90.80;;;;;;5093936;28;20044;-70
2022/07/14 07:36:46;;;;;;;2.60;0.70;;;28.20;91.10;;;;;;5077079;28;20059;-70
2022/07/14 07:39:11;;;;;;;2.78;0.50;;;28.60;90.20;;;;;;5077037;28;20044;-71
2022/07/14 07:41:37;;;;;;;2.25;0.60;;;28.00;88.90;;;;;;5094530;28;20044;-71
2022/07/14 07:44:03;;;;;;;2.83;0.95;;;27.70;89.30;;;;;;5077247;28;20055;-69
2022/07/14 07:46:29;;;;;;;1.63;0.38;;;27.50;90.50;;;;;;5094345;28;20044;-70
2022/07/14 07:48:54;;;;;;;1.25;0.40;;;28.60;88.60;;;;;;5071158;28;20055;-70
2022/07/14 07:51:20;;;;;;;2.22;0.55;;;29.20;87.40;;;;;;5056425;28;20099;-70
2022/07/14 07:53:45;;;;;;;3.15;0.93;;;29.00;87.50;;;;;;5074508;28;20067;-70
2022/07/14 07:56:11;;;;;;;3.17;0.60;;;28.80;87.50;;;;;;5074092;28;20457;-68
2022/07/14 07:58:37;;;;;;;2.88;0.52;;;28.50;87.80;;;;;;5060215;28;20048;-71
2022/07/14 08:01:03;;;;;;;4.35;0.63;;;28.40;87.10;;;;;;5078149;28;20044;-70
2022/07/14 08:03:29;;;;;;;2.40;0.57;;;29.00;89.50;;;;;;5077048;28;20048;-70
2022/07/14 08:05:54;;;;;;;3.70;0.60;;;29.50;88.00;;;;;;5080527;28;20450;-70
2022/07/14 08:08:20;;;;;;;1.10;0.50;;;28.70;86.10;;;;;;5080314;28;20122;-70
2022/07/14 08:10:46;;;;;;;3.28;0.50;;;28.00;86.40;;;;;;5079462;28;20372;-69
2022/07/14 08:13:12;;;;;;;2.78;0.77;;;27.40;86.80;;;;;;5080610;28;20044;-69
2022/07/14 08:15:38;;;;;;;2.28;0.57;;;27.60;87.20;;;;;;5079585;28;20048;-70
2022/07/14 08:18:04;;;;;;;2.90;0.50;;;27.80;86.20;;;;;;5064195;28;20075;-71
2022/07/14 08:20:30;;;;;;;2.80;0.70;;;27.90;89.20;;;;;;5077524;28;20145;-70
2022/07/14 08:22:57;;;;;;;1.60;0.60;;;28.20;87.20;;;;;;5059710;28;20040;-69
2022/07/14 08:25:22;;;;;;;4.70;0.60;;;28.20;87.50;;;;;;5077415;28;20048;-71
2022/07/14 08:27:48;;;;;;;2.33;0.60;;;27.80;87.10;;;;;;5059715;28;20468;-69
2022/07/14 08:30:14;;;;;;;3.83;0.80;;;26.90;86.10;;;;;;5059583;28;20067;-68
2022/07/14 08:32:51;;;;;;;1.83;0.40;;;26.20;85.60;;;;;;5073503;28;20509;-70
2022/07/14 08:35:18;;;;;;;2.05;0.50;;;26.00;88.30;;;;;;5079783;28;20052;-69
2022/07/14 08:37:44;;;;;;;3.92;1.00;;;26.00;88.00;;;;;;5079944;28;20479;-70
2022/07/14 08:40:13;;;;;;;1.75;0.52;;;26.20;87.80;;;;;;5097351;28;20040;-70
2022/07/14 08:42:42;;;;;;;10.73;1.30;;;26.60;89.70;;;;;;5097056;28;20050;-70
2022/07/14 08:45:10;;;;;;;3.45;0.68;;;26.80;88.60;;;;;;5079097;28;20044;-70
2022/07/14 08:47:37;;;;;;;4.13;0.80;;;26.40;88.90;;;;;;5063331;28;20349;-70
2022/07/14 08:50:04;;;;;;;4.60;0.80;;;25.80;89.20;;;;;;5059408;28;20349;-70
2022/07/14 08:52:31;;;;;;;1.90;0.80;;;25.20;89.50;;;;;;5076682;28;20040;-70
2022/07/14 08:54:57;;;;;;;5.57;1.00;;;24.90;90.20;;;;;;5077097;28;20044;-71
2022/07/14 08:57:23;;;;;;;2.30;0.40;;;25.10;90.90;;;;;;5076733;28;20041;-69
2022/07/14 08:59:48;;;;;;;2.13;0.52;;;25.20;90.90;;;;;;5076944;28;20063;-71
2022/07/14 09:02:14;;;;;;;2.25;0.50;;;25.30;90.80;;;;;;5059422;28;20047;-70
2022/07/14 09:04:44;;;;;;;1.15;0.50;;;25.30;90.70;;;;;;5059559;28;20178;-70
2022/07/14 09:07:10;;;;;;;8.10;0.88;;;25.60;90.80;;;;;;5058991;28;20056;-70
2022/07/14 09:09:37;;;;;;;3.55;0.80;;;25.80;90.70;;;;;;5076306;28;20051;-70
2022/07/14 09:12:06;;;;;;;2.72;0.55;;;25.80;90.60;;;;;;5076609;28;20080;-70
2022/07/14 09:17:20;;;;;;;3.45;0.80;;;25.20;90.40;;;;;;5060886;28;20148;-69
2022/07/14 09:20:08;;;;;;;4.65;0.93;;;25.00;91.20;;;;;;5075918;28;20040;-72
2022/07/14 09:22:43;;;;;;;2.63;0.70;;;24.90;90.10;;;;;;5089940;28;20054;-71
2022/07/14 09:25:11;;;;;;;2.60;0.45;;;24.80;91.10;;;;;;5096755;28;20047;-73
2022/07/14 09:27:38;;;;;;;1.45;0.47;;;25.00;91.50;;;;;;5078440;28;20059;-74
2022/07/14 09:30:10;;;;;;;3.28;0.60;;;25.50;90.90;;;;;;5078645;28;20142;-74
2022/07/14 09:32:46;;;;;;;3.50;0.82;;;25.30;90.60;;;;;;5078266;28;20059;-73
2022/07/14 09:35:14;;;;;;;3.75;0.70;;;25.30;90.50;;;;;;5096540;28;20114;-72
2022/07/14 09:37:40;;;;;;;2.55;0.70;;;25.00;90.80;;;;;;5095857;28;20048;-71
2022/07/14 09:40:10;;;;;;;2.25;0.60;;;24.80;90.80;;;;;;5078125;28;20055;-72
2022/07/14 09:42:53;;;;;;;2.75;0.68;;;24.70;90.80;;;;;;5077899;28;20454;-72
2022/07/14 09:45:28;;;;;;;2.53;0.60;;;24.50;91.10;;;;;;5096044;28;20480;-71
2022/07/14 09:47:59;;;;;;;1.50;0.50;;;24.50;91.40;;;;;;5061924;28;20062;-71
2022/07/14 09:50:44;;;;;;;1.60;0.60;;;24.80;91.20;;;;;;5078145;28;20088;-71
2022/07/14 09:53:19;;;;;;;1.23;0.50;;;24.40;90.80;;;;;;5052819;28;20071;-71
2022/07/14 09:56:09;;;;;;;2.42;0.68;;;24.20;91.10;;;;;;5055915;28;20120;-74
2022/07/14 09:58:45;;;;;;;1.38;0.50;;;24.10;91.80;;;;;;5038362;28;20055;-71
2022/07/14 10:01:15;;;;;;;6.10;1.08;;;24.10;91.80;;;;;;5038135;28;20485;-72
2022/07/14 10:03:45;;;;;;;2.65;0.57;;;24.20;91.40;;;;;;5055143;28;20056;-71
2022/07/14 10:06:11;;;;;;;2.33;0.40;;;24.20;91.20;;;;;;5055549;28;20041;-72
2022/07/14 10:08:41;;;;;;;1.73;0.50;;;24.20;91.30;;;;;;5037784;28;20045;-72
2022/07/14 10:11:06;;;;;;;2.35;0.73;;;24.40;91.10;;;;;;5037777;28;20053;-70
2022/07/14 10:13:32;;;;;;;2.25;0.70;;;24.50;91.50;;;;;;5055295;28;20043;-72
2022/07/14 10:15:59;;;;;;;1.13;0.55;;;24.80;91.80;;;;;;5019948;28;20068;-71
2022/07/14 10:18:26;;;;;;;3.60;0.60;;;24.90;91.60;;;;;;5037449;28;20523;-72
2022/07/14 10:20:57;;;;;;;3.08;0.85;;;24.80;91.90;;;;;;5038675;28;20353;-71
2022/07/14 10:23:25;;;;;;;2.80;0.60;;;25.20;91.90;;;;;;5037591;28;20613;-72
2022/07/14 10:25:53;;;;;;;0.95;0.40;;;25.20;91.30;;;;;;5055140;28;20045;-73
2022/07/14 10:28:19;;;;;;;1.20;0.60;;;25.20;91.30;;;;;;5038131;28;20060;-72
2022/07/14 10:30:50;;;;;;;3.63;0.45;;;25.30;91.40;;;;;;5054192;28;20044;-72
2022/07/14 10:34:01;;;;;;;2.58;0.73;;;25.20;91.50;;;;;;5054914;28;20043;-71
2022/07/14 10:36:41;;;;;;;1.55;0.50;;;25.40;91.30;;;;;;5006974;28;20513;-71
2022/07/14 10:39:20;;;;;;;3.28;0.63;;;25.50;91.60;;;;;;5038131;28;20063;-72
2022/07/14 10:42:23;;;;;;;1.83;0.32;;;25.30;91.70;;;;;;5067180;28;20063;-72
2022/07/14 10:44:49;;;;;;;;;;;25.60;91.20;;;;;;5075356;28;20123;-72
2022/07/14 10:47:16;;;;;;;2.80;0.50;;;25.30;90.70;;;;;;5040388;28;19920;-72
2022/07/14 10:50:00;;;;;;;1.65;0.77;;;25.30;91.20;;;;;;5074824;28;20048;-71
2022/07/14 10:52:29;;;;;;;2.53;0.85;;;25.30;91.00;;;;;;5057325;28;20052;-72
2022/07/14 10:55:10;;;;;;;4.45;0.55;;;25.30;91.40;;;;;;5076789;28;20093;-73
2022/07/14 10:57:36;;;;;;;3.22;0.65;;;25.30;91.30;;;;;;5088663;28;20091;-71
2022/07/14 11:00:03;;;;;;;2.80;0.85;;;25.30;91.40;;;;;;5057477;28;20079;-72
2022/07/14 11:02:31;;;;;;;2.75;0.65;;;25.20;91.70;;;;;;5074584;28;20105;-72
2022/07/14 11:04:57;;;;;;;1.48;0.60;;;25.20;91.30;;;;;;5078044;28;20059;-71
2022/07/14 11:07:46;;;;;;;2.72;0.65;;;25.10;90.70;;;;;;5077610;28;20376;-72
2022/07/14 11:10:17;;;;;;;2.55;0.60;;;24.90;91.80;;;;;;5076723;28;20048;-73
2022/07/14 11:13:06;;;;;;;2.53;0.80;;;25.00;91.60;;;;;;5095220;28;20079;-71
2022/07/14 11:15:51;;;;;;;2.83;0.68;;;24.90;90.90;;;;;;5062270;28;20075;-72
2022/07/14 11:18:17;;;;;;;3.65;0.60;;;24.90;91.10;;;;;;5067537;28;20094;-71
2022/07/14 11:20:50;;;;;;;4.05;0.60;;;24.50;91.60;;;;;;5057032;28;20075;-72
2022/07/14 11:23:17;;;;;;;;;;;24.40;91.70;;;;;;5074893;28;20041;-73
2022/07/14 11:25:43;;;;;;;2.33;0.70;;;24.30;91.70;;;;;;5074664;28;19920;-74
2022/07/14 11:28:31;;;;;;;0.98;0.50;;;24.10;92.40;;;;;;5074611;28;20045;-72
2022/07/14 11:31:12;;;;;;;3.33;0.60;;;24.10;92.90;;;;;;5056612;28;20147;-73
2022/07/14 11:36:24;;;;;;;3.85;0.90;;;24.10;92.10;;;;;;5098538;28;20087;-71
2022/07/14 11:38:49;;;;;;;0.60;0.50;;;23.90;92.30;;;;;;5098399;28;20035;-72
2022/07/14 11:41:15;;;;;;;2.30;0.70;;;23.80;92.50;;;;;;5081075;28;20055;-72
2022/07/14 11:43:45;;;;;;;3.58;0.90;;;23.80;92.40;;;;;;5098535;28;20044;-73
2022/07/14 11:46:16;;;;;;;2.80;0.63;;;23.90;92.30;;;;;;5080743;28;20058;-73
2022/07/14 11:48:48;;;;;;;2.30;0.73;;;23.90;92.30;;;;;;5080238;28;20048;-72
2022/07/14 11:51:19;;;;;;;1.63;0.47;;;23.90;92.40;;;;;;5080579;28;20448;-72
2022/07/14 11:53:45;;;;;;;3.40;1.02;;;24.20;93.40;;;;;;5070072;28;20125;-72
2022/07/14 11:56:12;;;;;;;3.70;0.40;;;24.60;92.80;;;;;;5077858;28;20120;-73
2022/07/14 11:58:41;;;;;;;1.42;0.52;;;24.70;92.50;;;;;;5060340;28;20155;-72
2022/07/14 12:01:08;;;;;;;3.38;0.77;;;25.10;92.00;;;;;;5060487;28;20040;-72
2022/07/14 12:03:34;;;;;;;4.22;0.73;;;25.10;92.10;;;;;;5044794;28;20071;-73
2022/07/14 12:06:01;;;;;;;3.75;0.70;;;25.30;91.60;;;;;;5057949;28;20060;-73
2022/07/14 12:08:29;;;;;;;4.25;0.50;;;25.30;91.50;;;;;;5040147;28;20389;-72
2022/07/14 12:11:04;;;;;;;2.58;0.70;;;25.10;91.20;;;;;;5057287;28;20037;-71
2022/07/14 12:13:30;;;;;;;1.20;0.47;;;25.10;91.00;;;;;;5057271;28;20037;-71
2022/07/14 12:16:03;;;;;;;4.38;1.20;;;25.10;91.20;;;;;;5039987;28;20414;-74
2022/07/14 12:18:31;;;;;;;;;;;25.00;90.80;;;;;;5040428;28;20122;-73
2022/07/14 12:20:59;;;;;;;4.25;0.98;;;24.90;91.90;;;;;;5056771;28;20256;-73
2022/07/14 12:23:24;;;;;;;4.60;0.90;;;24.90;91.60;;;;;;5039747;28;20416;-73
2022/07/14 12:25:50;;;;;;;3.05;0.70;;;24.60;91.00;;;;;;5057414;28;20045;-73
2022/07/14 12:28:18;;;;;;;0.70;0.50;;;24.20;90.70;;;;;;5040558;28;20102;-72
2022/07/14 12:30:47;;;;;;;2.88;0.50;;;24.10;91.20;;;;;;5039790;28;20048;-73
2022/07/14 12:33:24;;;;;;;1.75;0.50;;;24.10;91.90;;;;;;5070891;28;20040;-72
2022/07/14 12:35:54;;;;;;;1.15;0.50;;;24.30;91.70;;;;;;5058463;28;20483;-71
2022/07/14 12:38:21;;;;;;;3.40;0.52;;;24.50;91.70;;;;;;5059083;28;20045;-71
2022/07/14 12:40:54;;;;;;;1.00;0.55;;;24.50;91.30;;;;;;5058568;28;20044;-71
2022/07/14 12:43:20;;;;;;;2.25;0.50;;;24.40;90.90;;;;;;5076255;28;20052;-71
2022/07/14 12:46:07;;;;;;;1.30;0.38;;;24.60;91.10;;;;;;5059459;28;20072;-72
2022/07/14 12:48:55;;;;;;;4.07;0.57;;;24.50;91.40;;;;;;5076298;28;20419;-72
2022/07/14 12:51:25;;;;;;;0.80;0.40;;;24.10;91.00;;;;;;5059891;28;20127;-71
2022/07/14 12:54:04;;;;;;;5.05;0.60;;;23.70;91.30;;;;;;5070329;28;20060;-72
2022/07/14 12:56:45;;;;;;;1.55;0.40;;;23.60;91.40;;;;;;5079193;28;20135;-71
2022/07/14 12:59:14;;;;;;;3.15;0.75;;;23.60;92.30;;;;;;5080127;28;20051;-74
2022/07/14 13:01:58;;;;;;;3.95;0.63;;;23.30;91.60;;;;;;5073427;28;20086;-73